Time;durP1;ratioP1;P1;durP2;ratioP2;P2;SDS_P1;SDS_P2;PMS_P1;PMS_P2;Temp;Humidity;BMP_temperature;BMP_pressure;BME280_temperature;BME280_humidity;BME280_pressure;Samples;Min_cycle;Max_cycle;Signal;HPM_P1;HPM_P2
2023/04/29 00:01:14;;;;;;;26.88;15.40;;;9.80;99.90;;;;;;5082595;28;20054;-76
2023/04/29 00:03:39;;;;;;;27.48;15.43;;;9.80;99.90;;;;;;5077116;28;20024;-77
2023/04/29 00:06:05;;;;;;;22.90;13.93;;;9.80;99.90;;;;;;5055719;28;20028;-76
2023/04/29 00:08:31;;;;;;;24.55;15.25;;;9.70;99.90;;;;;;5080493;28;20066;-75
2023/04/29 00:10:56;;;;;;;22.63;13.85;;;9.70;99.90;;;;;;5080949;28;20047;-75
2023/04/29 00:13:22;;;;;;;25.05;15.20;;;9.70;99.90;;;;;;5060875;28;20094;-76
2023/04/29 00:15:47;;;;;;;24.35;14.75;;;9.60;99.90;;;;;;5080882;28;20570;-76
2023/04/29 00:18:13;;;;;;;26.30;14.93;;;9.50;99.90;;;;;;5081550;28;20035;-76
2023/04/29 00:20:39;;;;;;;22.95;14.10;;;9.50;99.90;;;;;;5083030;28;20028;-75
2023/04/29 00:23:05;;;;;;;23.13;14.13;;;9.40;99.90;;;;;;5082974;28;20039;-76
2023/04/29 00:25:31;;;;;;;24.65;14.13;;;9.40;99.90;;;;;;5061504;28;20090;-76
2023/04/29 00:28:00;;;;;;;20.67;12.77;;;9.40;99.90;;;;;;5059645;28;20020;-76
2023/04/29 00:30:27;;;;;;;22.60;13.18;;;9.40;99.90;;;;;;5076253;28;20107;-76
2023/04/29 00:32:53;;;;;;;20.92;13.35;;;9.30;99.90;;;;;;5059725;28;20505;-77
2023/04/29 00:35:19;;;;;;;22.65;14.25;;;9.30;99.90;;;;;;5069567;28;20047;-76
2023/04/29 00:37:45;;;;;;;20.92;13.77;;;9.20;99.90;;;;;;5080990;28;20071;-76
2023/04/29 00:40:14;;;;;;;22.48;13.50;;;9.10;99.90;;;;;;5062634;28;20394;-76
2023/04/29 00:42:40;;;;;;;20.08;12.80;;;9.10;99.90;;;;;;5061021;28;20035;-76
2023/04/29 00:45:07;;;;;;;23.02;14.52;;;9.10;99.90;;;;;;5084873;28;20024;-76
2023/04/29 00:47:32;;;;;;;24.20;14.57;;;9.10;99.90;;;;;;5063684;28;20032;-76
2023/04/29 00:49:58;;;;;;;24.95;14.10;;;9.00;99.90;;;;;;5069819;28;20471;-75
2023/04/29 00:52:26;;;;;;;21.30;13.48;;;9.00;99.90;;;;;;5071734;28;20047;-75
2023/04/29 00:54:51;;;;;;;25.58;13.90;;;9.00;99.90;;;;;;5062291;28;20176;-76
2023/04/29 00:57:18;;;;;;;24.98;13.38;;;8.90;99.90;;;;;;5061577;28;20123;-76
2023/04/29 00:59:44;;;;;;;24.00;14.38;;;8.90;99.90;;;;;;5081722;28;20046;-75
2023/04/29 01:02:10;;;;;;;25.35;13.73;;;8.90;99.90;;;;;;5079569;28;23306;-76
2023/04/29 01:04:36;;;;;;;24.80;14.95;;;8.90;99.90;;;;;;5077342;28;20435;-75
2023/04/29 01:07:25;;;;;;;27.83;15.98;;;8.90;99.90;;;;;;5077398;28;20039;-76
2023/04/29 01:10:09;;;;;;;25.08;15.15;;;8.80;99.90;;;;;;5076523;28;20035;-76
2023/04/29 01:12:35;;;;;;;27.08;15.65;;;8.70;99.90;;;;;;5063352;28;20044;-76
2023/04/29 01:15:01;;;;;;;27.27;15.43;;;8.70;99.90;;;;;;5071563;28;20039;-75
2023/04/29 01:17:30;;;;;;;21.60;14.20;;;8.70;99.90;;;;;;5065570;28;20032;-75
2023/04/29 01:19:58;;;;;;;25.48;15.80;;;8.70;99.90;;;;;;5063534;28;20515;-75
2023/04/29 01:22:24;;;;;;;23.90;15.07;;;8.60;99.90;;;;;;5063295;28;20028;-76
2023/04/29 01:24:50;;;;;;;23.58;14.80;;;8.60;99.90;;;;;;5059777;28;20093;-76
2023/04/29 01:27:30;;;;;;;26.42;15.85;;;8.60;99.90;;;;;;5061671;28;20020;-76
2023/04/29 01:30:21;;;;;;;24.60;15.25;;;8.60;99.90;;;;;;5078558;28;20059;-75
2023/04/29 01:33:03;;;;;;;29.90;16.65;;;8.60;99.90;;;;;;5077965;28;20044;-75
2023/04/29 01:35:49;;;;;;;25.45;15.30;;;8.50;99.90;;;;;;5061213;28;20032;-76
2023/04/29 01:38:36;;;;;;;24.08;14.95;;;8.40;99.90;;;;;;5080620;28;20095;-75
2023/04/29 01:41:30;;;;;;;25.30;15.40;;;8.30;99.90;;;;;;5058732;28;20506;-76
2023/04/29 01:43:58;;;;;;;26.70;15.27;;;8.30;99.90;;;;;;5063142;28;20047;-75
2023/04/29 01:46:24;;;;;;;25.48;15.27;;;8.30;99.90;;;;;;5078586;28;20024;-76
2023/04/29 01:48:53;;;;;;;29.92;16.30;;;8.30;99.90;;;;;;5081227;28;20039;-75
2023/04/29 01:51:19;;;;;;;31.83;17.08;;;8.30;99.90;;;;;;5089952;28;20407;-76
2023/04/29 01:53:44;;;;;;;28.65;16.15;;;8.30;99.90;;;;;;5066618;28;20121;-75
2023/04/29 01:56:10;;;;;;;30.80;16.63;;;8.30;99.90;;;;;;5079769;28;20028;-76
2023/04/29 01:58:35;;;;;;;25.05;14.25;;;8.20;99.90;;;;;;5083505;28;20371;-76
2023/04/29 02:01:01;;;;;;;30.52;15.70;;;8.20;99.90;;;;;;5062679;28;20056;-76
2023/04/29 02:03:26;;;;;;;27.45;16.67;;;8.20;99.90;;;;;;5059745;28;20024;-76
2023/04/29 02:05:52;;;;;;;29.70;17.05;;;8.20;99.90;;;;;;5062384;28;20044;-76
2023/04/29 02:08:18;;;;;;;32.30;18.02;;;8.20;99.90;;;;;;5066030;28;20110;-76
2023/04/29 02:10:58;;;;;;;30.85;17.98;;;8.10;99.90;;;;;;5065023;28;20031;-76
2023/04/29 02:13:23;;;;;;;26.08;14.43;;;8.10;99.90;;;;;;5078185;28;20138;-76
2023/04/29 02:15:49;;;;;;;25.27;15.05;;;8.00;99.90;;;;;;5064855;28;20044;-76
2023/04/29 02:18:15;;;;;;;26.98;15.30;;;8.00;99.90;;;;;;5064040;28;20043;-76
2023/04/29 02:20:41;;;;;;;24.77;14.80;;;8.00;99.90;;;;;;5075659;28;20617;-76
2023/04/29 02:23:06;;;;;;;31.00;16.55;;;7.90;99.90;;;;;;5064438;28;20132;-76
2023/04/29 02:25:32;;;;;;;30.60;15.88;;;7.90;99.90;;;;;;5057627;28;20031;-76
2023/04/29 02:27:57;;;;;;;31.88;17.33;;;7.80;99.90;;;;;;5066813;28;20035;-75
2023/04/29 02:30:23;;;;;;;32.40;16.80;;;7.80;99.90;;;;;;5083463;28;20035;-76
2023/04/29 02:32:49;;;;;;;27.60;15.77;;;7.80;99.90;;;;;;5064289;28;20040;-76
2023/04/29 02:35:15;;;;;;;30.00;17.50;;;7.80;99.90;;;;;;5072389;28;20020;-76
2023/04/29 02:37:40;;;;;;;30.52;16.75;;;7.80;99.90;;;;;;5073466;28;20036;-76
2023/04/29 02:40:06;;;;;;;32.33;17.45;;;7.70;99.90;;;;;;5077687;28;20095;-76
2023/04/29 02:42:32;;;;;;;35.35;18.60;;;7.70;99.90;;;;;;5074268;28;20709;-76
2023/04/29 02:44:58;;;;;;;30.70;17.45;;;7.70;99.90;;;;;;5064223;28;20077;-76
2023/04/29 02:47:23;;;;;;;33.33;18.55;;;7.70;99.90;;;;;;5084560;28;20360;-76
2023/04/29 02:49:49;;;;;;;28.65;17.70;;;7.70;99.90;;;;;;5054677;28;20128;-76
2023/04/29 02:52:16;;;;;;;33.50;18.00;;;7.80;99.90;;;;;;5067219;28;20094;-76
2023/04/29 02:54:42;;;;;;;31.13;16.73;;;7.80;99.90;;;;;;5081127;28;20127;-75
2023/04/29 02:57:07;;;;;;;32.88;17.52;;;7.80;99.90;;;;;;5053245;28;20051;-76
2023/04/29 02:59:33;;;;;;;33.17;17.52;;;7.70;99.90;;;;;;5086513;28;20099;-76
2023/04/29 03:02:00;;;;;;;35.50;18.33;;;7.70;99.90;;;;;;5060932;28;20119;-76
2023/04/29 03:04:27;;;;;;;34.35;19.02;;;7.70;99.90;;;;;;5079599;28;20028;-76
2023/04/29 03:06:57;;;;;;;36.65;18.48;;;7.70;99.90;;;;;;5065215;28;20035;-76
2023/04/29 03:09:23;;;;;;;31.02;18.02;;;7.60;99.90;;;;;;5065255;28;20033;-76
2023/04/29 03:11:49;;;;;;;31.85;18.15;;;7.60;99.90;;;;;;5078797;28;20457;-77
2023/04/29 03:14:14;;;;;;;33.33;17.33;;;7.60;99.90;;;;;;5067381;28;20186;-76
2023/04/29 03:16:40;;;;;;;34.17;18.33;;;7.60;99.90;;;;;;5095211;28;20035;-76
2023/04/29 03:19:06;;;;;;;31.38;17.83;;;7.60;99.90;;;;;;5087062;28;20044;-76
2023/04/29 03:21:31;;;;;;;34.70;16.42;;;7.60;99.90;;;;;;5081760;28;20047;-75
2023/04/29 03:23:57;;;;;;;30.63;17.98;;;7.60;99.90;;;;;;5082756;28;20106;-75
2023/04/29 03:26:23;;;;;;;29.20;16.70;;;7.60;99.90;;;;;;5078241;28;20110;-76
2023/04/29 03:28:49;;;;;;;29.05;15.65;;;7.60;99.90;;;;;;5082598;28;20020;-76
2023/04/29 03:31:15;;;;;;;32.03;17.17;;;7.50;99.90;;;;;;5080842;28;20034;-76
2023/04/29 03:33:41;;;;;;;30.90;18.38;;;7.50;99.90;;;;;;5082616;28;20102;-76
2023/04/29 03:36:07;;;;;;;37.67;19.13;;;7.40;99.90;;;;;;5072166;28;20020;-76
2023/04/29 03:38:33;;;;;;;32.97;18.17;;;7.40;99.90;;;;;;5070258;28;20139;-76
2023/04/29 03:40:59;;;;;;;31.35;18.38;;;7.40;99.90;;;;;;5050852;28;20032;-75
2023/04/29 03:43:25;;;;;;;37.42;19.17;;;7.30;99.90;;;;;;5082535;28;20020;-76
2023/04/29 03:45:51;;;;;;;39.30;20.17;;;7.30;99.90;;;;;;5063021;28;20356;-76
2023/04/29 03:48:17;;;;;;;39.92;20.65;;;7.30;99.90;;;;;;5065522;28;20039;-77
2023/04/29 03:50:43;;;;;;;36.78;19.65;;;7.30;99.90;;;;;;5080609;28;20031;-76
2023/04/29 03:53:08;;;;;;;35.42;19.20;;;7.30;99.90;;;;;;5049634;28;20100;-76
2023/04/29 03:55:34;;;;;;;34.17;18.65;;;7.30;99.90;;;;;;5070715;28;20080;-76
2023/04/29 03:58:00;;;;;;;34.67;18.65;;;7.30;99.90;;;;;;5082715;28;20830;-76
2023/04/29 04:00:25;;;;;;;31.35;17.13;;;7.20;99.90;;;;;;5081034;28;20028;-76
2023/04/29 04:02:51;;;;;;;33.92;17.80;;;7.20;99.90;;;;;;5061756;28;20043;-76
2023/04/29 04:05:20;;;;;;;32.35;17.23;;;7.20;99.90;;;;;;5081515;28;20069;-77
2023/04/29 04:07:46;;;;;;;31.58;17.25;;;7.10;99.90;;;;;;5074125;28;20039;-76
2023/04/29 04:10:11;;;;;;;25.85;14.38;;;7.00;99.90;;;;;;5056614;28;20522;-76
2023/04/29 04:12:37;;;;;;;22.88;12.98;;;7.00;99.90;;;;;;5082431;28;20514;-76
2023/04/29 04:15:03;;;;;;;25.17;13.93;;;6.90;99.90;;;;;;5061194;28;20127;-76
2023/04/29 04:17:29;;;;;;;23.80;13.45;;;6.80;99.90;;;;;;5053363;28;20031;-76
2023/04/29 04:19:54;;;;;;;25.20;13.00;;;6.80;99.90;;;;;;5080340;28;20145;-76
2023/04/29 04:22:20;;;;;;;22.50;12.52;;;6.70;99.90;;;;;;5063136;28;20036;-77
2023/04/29 04:24:46;;;;;;;25.98;13.85;;;6.60;99.90;;;;;;5071131;28;20103;-75
2023/04/29 04:27:12;;;;;;;25.58;13.77;;;6.60;99.90;;;;;;5063684;28;20182;-76
2023/04/29 04:29:38;;;;;;;24.67;14.00;;;6.50;99.90;;;;;;5064068;28;20043;-75
2023/04/29 04:32:04;;;;;;;31.30;16.65;;;6.50;99.90;;;;;;5061428;28;20036;-76
2023/04/29 04:34:29;;;;;;;29.02;16.88;;;6.50;99.90;;;;;;5083731;28;20508;-76
2023/04/29 04:36:55;;;;;;;28.85;16.45;;;6.40;99.90;;;;;;5064929;28;20048;-76
2023/04/29 04:39:21;;;;;;;31.50;16.50;;;6.40;99.90;;;;;;5076147;28;20052;-76
2023/04/29 04:41:46;;;;;;;29.42;17.38;;;6.50;99.90;;;;;;5074299;28;20047;-77
2023/04/29 04:44:13;;;;;;;32.47;16.83;;;6.50;99.90;;;;;;5063579;28;20114;-76
2023/04/29 04:46:38;;;;;;;32.55;18.83;;;6.50;99.90;;;;;;5078685;28;20028;-76
2023/04/29 04:49:04;;;;;;;34.85;18.83;;;6.50;99.90;;;;;;5063446;28;20146;-76
2023/04/29 04:51:30;;;;;;;34.97;19.30;;;6.50;99.90;;;;;;5079478;28;20154;-76
2023/04/29 04:53:55;;;;;;;36.58;19.10;;;6.50;99.90;;;;;;5079203;28;20032;-77
2023/04/29 04:56:21;;;;;;;38.45;18.85;;;6.60;99.90;;;;;;5080687;28;20602;-76
2023/04/29 04:58:47;;;;;;;29.58;17.00;;;6.70;99.90;;;;;;5081648;28;20114;-76
2023/04/29 05:01:12;;;;;;;28.08;16.23;;;6.80;99.90;;;;;;5061760;28;20682;-77
2023/04/29 05:03:38;;;;;;;34.17;16.55;;;6.80;99.90;;;;;;5053166;28;20120;-77
2023/04/29 05:06:03;;;;;;;40.28;18.83;;;6.80;99.90;;;;;;5062908;28;20036;-77
2023/04/29 05:08:29;;;;;;;39.08;20.90;;;7.00;99.90;;;;;;5082029;28;20044;-78
2023/04/29 05:10:55;;;;;;;39.78;21.08;;;7.00;99.90;;;;;;5079206;28;20088;-77
2023/04/29 05:13:21;;;;;;;40.47;20.88;;;7.10;99.90;;;;;;5074739;28;20043;-77
2023/04/29 05:15:47;;;;;;;41.53;20.98;;;7.20;99.90;;;;;;5067736;28;20201;-77
2023/04/29 05:18:12;;;;;;;36.20;19.58;;;7.20;99.90;;;;;;5086546;28;20035;-77
2023/04/29 05:20:38;;;;;;;36.22;18.90;;;7.20;99.90;;;;;;5081214;28;20036;-76
2023/04/29 05:23:03;;;;;;;38.65;19.42;;;7.20;99.90;;;;;;5067562;28;20040;-76
2023/04/29 05:25:29;;;;;;;33.65;18.65;;;7.30;99.90;;;;;;5085107;28;20032;-76
2023/04/29 05:27:54;;;;;;;38.33;18.70;;;7.50;99.90;;;;;;5068882;28;20447;-76
2023/04/29 05:30:20;;;;;;;33.50;17.38;;;7.50;99.90;;;;;;5083300;28;20644;-76
2023/04/29 05:32:47;;;;;;;29.45;15.55;;;7.60;99.90;;;;;;5083359;28;20040;-76
2023/04/29 05:35:13;;;;;;;38.30;18.23;;;7.70;99.90;;;;;;5085165;28;20039;-77
2023/04/29 05:37:39;;;;;;;30.95;16.80;;;7.80;99.90;;;;;;5077555;28;20514;-76
2023/04/29 05:40:06;;;;;;;31.25;17.58;;;7.90;99.90;;;;;;5063677;28;20051;-76
2023/04/29 05:42:31;;;;;;;32.50;17.50;;;8.00;99.90;;;;;;5078827;28;20028;-77
2023/04/29 05:44:57;;;;;;;33.05;17.42;;;8.10;99.90;;;;;;5069759;28;20522;-76
2023/04/29 05:47:22;;;;;;;37.83;18.30;;;8.20;99.90;;;;;;5077058;28;20399;-76
2023/04/29 05:49:48;;;;;;;31.55;17.50;;;8.20;99.90;;;;;;5079987;28;20122;-76
2023/04/29 05:52:14;;;;;;;31.25;17.88;;;8.30;99.90;;;;;;5072824;28;20391;-76
2023/04/29 05:54:40;;;;;;;33.70;19.05;;;8.40;99.90;;;;;;5071670;28;20156;-76
2023/04/29 05:57:06;;;;;;;33.22;18.65;;;8.50;99.90;;;;;;5082276;28;20055;-76
2023/04/29 05:59:32;;;;;;;29.52;17.33;;;8.70;99.90;;;;;;5063237;28;20150;-76
2023/04/29 06:01:59;;;;;;;31.08;16.80;;;8.70;99.90;;;;;;5079322;28;20027;-75
2023/04/29 06:04:25;;;;;;;32.28;17.77;;;8.90;99.90;;;;;;5066468;28;20040;-77
2023/04/29 06:06:52;;;;;;;28.77;17.27;;;9.00;99.90;;;;;;5062343;28;20501;-77
2023/04/29 06:09:24;;;;;;;34.22;19.52;;;9.10;99.90;;;;;;5057648;28;20113;-77
2023/04/29 06:11:50;;;;;;;31.90;17.65;;;9.20;99.90;;;;;;5068148;28;20075;-77
2023/04/29 06:14:16;;;;;;;29.00;17.73;;;9.40;99.90;;;;;;5084168;28;20016;-77
2023/04/29 06:16:41;;;;;;;29.17;15.27;;;9.90;99.90;;;;;;5065344;28;20499;-77
2023/04/29 06:19:07;;;;;;;25.23;14.77;;;10.70;99.90;;;;;;5066030;28;20044;-76
2023/04/29 06:21:33;;;;;;;21.90;14.23;;;11.20;99.90;;;;;;5066286;28;20038;-77
2023/04/29 06:23:58;;;;;;;25.88;14.18;;;11.80;99.90;;;;;;5083774;28;20047;-76
2023/04/29 06:26:24;;;;;;;25.83;13.88;;;12.00;99.90;;;;;;5064627;28;20043;-77
2023/04/29 06:28:50;;;;;;;22.30;13.43;;;12.10;99.90;;;;;;5065909;28;20031;-78
2023/04/29 06:31:15;;;;;;;22.00;12.32;;;12.10;99.90;;;;;;5060148;28;20032;-77
2023/04/29 06:33:41;;;;;;;18.58;11.65;;;12.20;99.90;;;;;;5080753;28;20028;-77
2023/04/29 06:36:07;;;;;;;18.55;11.55;;;12.20;99.90;;;;;;5080685;28;20055;-77
2023/04/29 06:38:33;;;;;;;17.02;11.27;;;12.10;99.90;;;;;;5077229;28;20039;-77
2023/04/29 06:40:59;;;;;;;18.90;11.82;;;12.10;99.90;;;;;;5076875;28;20031;-77
2023/04/29 06:43:28;;;;;;;19.63;11.32;;;12.20;99.90;;;;;;5081893;28;20076;-77
2023/04/29 06:45:54;;;;;;;17.27;10.98;;;12.30;99.90;;;;;;5082764;28;20110;-76
2023/04/29 06:48:20;;;;;;;20.20;12.05;;;12.50;99.90;;;;;;5064955;28;20140;-74
2023/04/29 06:50:56;;;;;;;21.60;12.52;;;12.30;99.90;;;;;;5066706;28;20407;-76
2023/04/29 06:53:22;;;;;;;22.55;12.90;;;12.30;99.90;;;;;;5080548;28;20052;-76
2023/04/29 06:55:48;;;;;;;20.15;11.77;;;12.30;99.90;;;;;;5063377;28;20025;-77
2023/04/29 06:58:18;;;;;;;22.55;12.50;;;12.20;99.90;;;;;;5065124;28;20084;-77
2023/04/29 07:00:48;;;;;;;20.30;12.73;;;11.90;99.90;;;;;;5054830;28;20032;-76
2023/04/29 07:03:15;;;;;;;21.73;13.45;;;12.10;99.90;;;;;;5061259;28;20409;-76
2023/04/29 07:05:41;;;;;;;18.33;11.27;;;12.40;99.90;;;;;;5077975;28;20125;-77
2023/04/29 07:08:12;;;;;;;17.90;10.77;;;12.60;99.90;;;;;;5065017;28;20032;-77
2023/04/29 07:10:37;;;;;;;23.98;11.88;;;12.50;99.90;;;;;;5078436;28;20027;-76
2023/04/29 07:13:04;;;;;;;18.95;11.23;;;12.50;99.90;;;;;;5074292;28;20097;-76
2023/04/29 07:15:33;;;;;;;21.42;12.02;;;12.50;99.90;;;;;;5058393;28;20418;-76
2023/04/29 07:17:59;;;;;;;17.35;10.65;;;12.60;99.90;;;;;;5058978;28;20060;-76
2023/04/29 07:20:26;;;;;;;19.80;11.75;;;12.60;99.90;;;;;;5059005;28;20416;-76
2023/04/29 07:22:52;;;;;;;18.50;11.93;;;12.80;99.90;;;;;;5077673;28;20127;-76
2023/04/29 07:25:18;;;;;;;20.02;11.40;;;12.90;99.90;;;;;;5075979;28;20114;-76
2023/04/29 07:27:43;;;;;;;15.73;9.40;;;13.10;99.90;;;;;;5062190;28;20352;-76
2023/04/29 07:30:09;;;;;;;18.15;10.65;;;13.20;99.90;;;;;;5080649;28;20531;-76
2023/04/29 07:32:35;;;;;;;19.85;11.48;;;13.30;99.90;;;;;;5064297;28;20122;-76
2023/04/29 07:35:01;;;;;;;16.98;10.57;;;13.20;99.90;;;;;;5079030;28;20023;-76
2023/04/29 07:37:27;;;;;;;19.45;10.70;;;13.20;99.90;;;;;;5065662;28;20363;-76
2023/04/29 07:39:52;;;;;;;16.35;10.30;;;13.30;99.90;;;;;;5055157;28;20016;-76
2023/04/29 07:42:18;;;;;;;16.95;10.43;;;13.20;99.90;;;;;;5078093;28;20037;-76
2023/04/29 07:44:46;;;;;;;18.83;9.70;;;13.50;99.90;;;;;;5060684;28;20368;-75
2023/04/29 07:47:12;;;;;;;14.93;9.80;;;13.90;99.90;;;;;;5068139;28;20036;-76
2023/04/29 07:49:38;;;;;;;18.08;10.38;;;14.10;99.90;;;;;;5063228;28;20020;-76
2023/04/29 07:52:04;;;;;;;15.88;10.13;;;14.00;98.70;;;;;;5076860;28;20048;-76
2023/04/29 07:54:30;;;;;;;14.75;9.73;;;14.00;99.90;;;;;;5078096;28;20386;-76
2023/04/29 07:56:57;;;;;;;14.50;9.23;;;14.20;99.20;;;;;;5060159;28;20886;-76
2023/04/29 07:59:23;;;;;;;13.98;8.85;;;14.30;98.40;;;;;;5075041;28;20036;-76
2023/04/29 08:01:48;;;;;;;14.38;9.00;;;14.50;98.20;;;;;;5056988;28;20036;-76
2023/04/29 08:04:14;;;;;;;13.95;8.43;;;14.30;96.20;;;;;;5082967;28;20073;-76
2023/04/29 08:06:40;;;;;;;15.20;9.50;;;14.00;97.70;;;;;;5056645;28;20046;-76
2023/04/29 08:09:06;;;;;;;14.40;8.48;;;14.10;97.60;;;;;;5054644;28;20119;-76
2023/04/29 08:11:32;;;;;;;15.10;8.95;;;14.60;98.10;;;;;;5076916;28;20111;-76
2023/04/29 08:13:59;;;;;;;12.25;7.78;;;15.00;94.90;;;;;;5077282;28;20024;-75
2023/04/29 08:16:25;;;;;;;15.13;8.07;;;15.30;94.00;;;;;;5071977;28;20024;-75
2023/04/29 08:18:51;;;;;;;11.65;6.80;;;16.10;94.10;;;;;;5055917;28;20074;-75
2023/04/29 08:21:18;;;;;;;12.02;7.05;;;16.50;90.20;;;;;;5061917;28;20436;-76
2023/04/29 08:23:44;;;;;;;12.20;7.55;;;17.60;81.50;;;;;;5059331;28;20563;-76
2023/04/29 08:26:11;;;;;;;11.75;7.22;;;18.60;72.10;;;;;;5055113;28;20032;-76
2023/04/29 08:28:37;;;;;;;14.35;6.85;;;18.70;63.50;;;;;;5056591;28;20598;-75
2023/04/29 08:31:06;;;;;;;12.65;6.65;;;17.90;63.40;;;;;;5074988;28;20344;-76
2023/04/29 08:33:35;;;;;;;11.45;7.07;;;18.40;69.90;;;;;;5060386;28;20044;-76
2023/04/29 08:36:02;;;;;;;10.45;6.50;;;18.60;64.10;;;;;;5053886;28;20028;-76
2023/04/29 08:38:28;;;;;;;10.40;6.50;;;19.20;57.70;;;;;;5058495;28;20545;-76
2023/04/29 08:40:55;;;;;;;9.80;6.57;;;19.50;56.80;;;;;;5064979;28;20036;-76
2023/04/29 08:43:21;;;;;;;11.63;6.25;;;19.80;57.50;;;;;;5064587;28;20698;-76
2023/04/29 08:45:48;;;;;;;11.05;6.53;;;20.00;52.90;;;;;;5060486;28;20024;-76
2023/04/29 08:48:16;;;;;;;11.15;6.88;;;19.50;53.70;;;;;;5061100;28;20078;-75
2023/04/29 08:50:42;;;;;;;9.98;6.68;;;18.80;57.40;;;;;;5061380;28;20024;-75
2023/04/29 08:53:13;;;;;;;9.80;6.43;;;18.00;61.30;;;;;;5060702;28;20112;-75
2023/04/29 08:55:45;;;;;;;8.35;4.53;;;18.50;62.40;;;;;;5057557;28;20097;-76
2023/04/29 08:58:13;;;;;;;7.63;5.20;;;21.30;56.20;;;;;;5053083;28;20047;-76
2023/04/29 09:00:43;;;;;;;6.57;4.80;;;22.10;47.30;;;;;;5048793;28;20020;-75
2023/04/29 09:03:20;;;;;;;8.50;5.28;;;21.50;48.90;;;;;;5055252;28;20032;-76
2023/04/29 09:05:49;;;;;;;9.05;5.57;;;21.40;47.20;;;;;;5050868;28;20104;-76
2023/04/29 09:08:16;;;;;;;10.07;5.43;;;20.50;47.90;;;;;;5057099;28;20055;-76
2023/04/29 09:10:42;;;;;;;10.60;5.40;;;20.50;51.70;;;;;;5058504;28;20039;-75
2023/04/29 09:13:07;;;;;;;7.43;5.05;;;20.80;51.70;;;;;;5055446;28;20440;-75
2023/04/29 09:15:39;;;;;;;6.88;4.85;;;21.40;52.10;;;;;;5055700;28;20032;-75
2023/04/29 09:18:05;;;;;;;6.85;4.70;;;22.90;46.40;;;;;;5053415;28;20029;-76
2023/04/29 09:20:30;;;;;;;7.15;4.70;;;23.90;43.40;;;;;;5074108;28;20040;-75
2023/04/29 09:23:02;;;;;;;6.85;4.30;;;24.40;41.90;;;;;;5073539;28;20123;-75
2023/04/29 09:25:28;;;;;;;8.40;4.53;;;24.30;41.30;;;;;;5055102;28;20300;-75
2023/04/29 09:27:54;;;;;;;7.95;5.05;;;24.60;42.40;;;;;;5051592;28;20089;-75
2023/04/29 09:30:21;;;;;;;8.13;4.75;;;25.00;40.30;;;;;;5072112;28;20032;-75
2023/04/29 09:33:19;;;;;;;7.47;4.95;;;24.50;40.30;;;;;;5072962;28;20059;-76
2023/04/29 09:35:46;;;;;;;7.20;4.50;;;24.30;41.50;;;;;;5038553;28;20519;-74
2023/04/29 09:38:14;;;;;;;7.20;4.30;;;24.40;41.00;;;;;;5076607;28;20108;-76
2023/04/29 09:40:42;;;;;;;7.57;4.45;;;25.50;42.80;;;;;;5072162;28;20481;-76
2023/04/29 09:43:17;;;;;;;5.03;3.50;;;28.20;36.70;;;;;;5050385;28;20032;-75
2023/04/29 09:45:47;;;;;;;7.93;4.28;;;31.70;33.30;;;;;;5067000;28;20024;-74
2023/04/29 09:48:14;;;;;;;5.68;3.67;;;33.70;28.80;;;;;;5075565;28;20104;-73
2023/04/29 09:50:42;;;;;;;7.95;4.30;;;33.90;26.90;;;;;;5070628;28;20028;-73
2023/04/29 09:53:10;;;;;;;6.60;4.30;;;33.70;26.30;;;;;;5075149;28;20032;-75
2023/04/29 09:56:02;;;;;;;5.63;4.20;;;31.50;27.80;;;;;;5052893;28;20456;-76
2023/04/29 09:58:36;;;;;;;5.85;4.07;;;28.40;32.60;;;;;;5074361;28;20038;-75
2023/04/29 10:01:03;;;;;;;5.88;4.35;;;26.90;35.00;;;;;;5060353;28;20450;-75
2023/04/29 10:03:33;;;;;;;5.20;3.58;;;27.00;36.90;;;;;;5080304;28;20051;-76
2023/04/29 10:06:00;;;;;;;5.55;3.75;;;29.70;34.00;;;;;;5075910;28;20028;-75
2023/04/29 10:08:27;;;;;;;5.15;3.83;;;31.50;31.60;;;;;;5073445;28;20032;-74
2023/04/29 10:10:58;;;;;;;7.25;4.13;;;31.20;30.00;;;;;;5076521;28;20046;-73
2023/04/29 10:13:27;;;;;;;7.00;4.68;;;31.20;28.50;;;;;;5076471;28;20036;-73
2023/04/29 10:16:03;;;;;;;5.35;4.32;;;29.50;29.70;;;;;;5056337;28;20028;-76
2023/04/29 10:18:36;;;;;;;5.25;3.75;;;27.70;31.80;;;;;;5070524;28;20059;-76
2023/04/29 10:21:05;;;;;;;7.40;4.50;;;26.20;36.90;;;;;;5057412;28;20889;-76
2023/04/29 10:23:32;;;;;;;8.23;4.57;;;26.60;36.90;;;;;;5076078;28;20349;-76
2023/04/29 10:25:59;;;;;;;6.68;4.15;;;26.60;37.10;;;;;;5058378;28;20478;-73
2023/04/29 10:28:26;;;;;;;5.85;4.18;;;26.40;38.00;;;;;;5078460;28;20039;-74
2023/04/29 10:30:53;;;;;;;6.72;4.47;;;26.10;37.70;;;;;;5088921;28;20448;-76
2023/04/29 10:33:21;;;;;;;5.82;4.20;;;25.30;38.70;;;;;;5081780;28;20032;-75
2023/04/29 10:35:48;;;;;;;6.05;4.55;;;24.40;39.00;;;;;;5082021;28;20508;-75
2023/04/29 10:38:41;;;;;;;6.60;4.85;;;24.00;39.60;;;;;;5063034;28;20089;-76
2023/04/29 10:41:45;;;;;;;7.45;5.05;;;23.30;40.90;;;;;;5062886;28;20535;-76
2023/04/29 10:44:12;;;;;;;7.43;4.53;;;22.60;43.10;;;;;;5060311;28;20046;-75
2023/04/29 10:46:37;;;;;;;6.60;4.30;;;21.90;44.50;;;;;;5058951;28;20020;-76
2023/04/29 10:49:05;;;;;;;6.20;4.72;;;21.10;45.60;;;;;;5063747;28;20030;-75
2023/04/29 10:51:43;;;;;;;5.15;3.80;;;21.50;48.20;;;;;;5072094;28;20037;-75
2023/04/29 10:54:14;;;;;;;5.95;4.13;;;24.70;46.30;;;;;;5059216;28;20032;-76
2023/04/29 10:56:48;;;;;;;6.57;4.05;;;27.40;37.10;;;;;;5075920;28;20024;-73
2023/04/29 10:59:18;;;;;;;5.72;4.25;;;29.30;33.90;;;;;;5064999;28;20031;-76
2023/04/29 11:01:51;;;;;;;8.60;4.28;;;30.10;31.90;;;;;;5078451;28;20027;-76
2023/04/29 11:04:20;;;;;;;5.72;4.57;;;29.30;33.20;;;;;;5080229;28;20093;-77
2023/04/29 11:06:54;;;;;;;6.78;4.90;;;28.00;37.80;;;;;;5063615;28;20523;-76
2023/04/29 11:09:22;;;;;;;7.82;4.50;;;26.80;37.10;;;;;;5061525;28;20652;-73
2023/04/29 11:12:17;;;;;;;7.85;4.25;;;25.90;38.60;;;;;;5063279;28;20567;-76
2023/04/29 11:14:49;;;;;;;7.03;4.13;;;26.60;42.90;;;;;;5067090;28;20050;-76
2023/04/29 11:17:18;;;;;;;6.55;4.90;;;28.80;39.10;;;;;;5065647;28;20081;-73
2023/04/29 11:19:47;;;;;;;6.40;4.05;;;28.60;30.80;;;;;;5062966;28;20047;-73
2023/04/29 11:22:21;;;;;;;5.05;3.60;;;28.90;34.10;;;;;;5083273;28;20487;-75
2023/04/29 11:24:51;;;;;;;6.05;4.07;;;27.80;35.70;;;;;;5066800;28;20842;-76
2023/04/29 11:27:19;;;;;;;6.22;4.22;;;26.50;36.40;;;;;;5066351;28;20028;-76
2023/04/29 11:29:46;;;;;;;5.68;4.68;;;25.40;39.40;;;;;;5080066;28;20043;-76
2023/04/29 11:32:12;;;;;;;6.53;4.00;;;24.00;42.80;;;;;;5079795;28;20032;-75
2023/04/29 11:34:37;;;;;;;6.88;3.92;;;23.50;44.60;;;;;;5083900;28;20073;-76
2023/04/29 11:37:04;;;;;;;5.35;3.60;;;22.90;46.60;;;;;;5081634;28;20625;-75
2023/04/29 11:39:34;;;;;;;5.90;4.07;;;23.20;45.40;;;;;;5079834;28;20031;-76
2023/04/29 11:42:06;;;;;;;6.07;3.92;;;23.90;46.30;;;;;;5094682;28;20059;-76
2023/04/29 11:44:36;;;;;;;7.22;4.57;;;23.40;43.30;;;;;;5045502;28;20032;-76
2023/04/29 11:47:11;;;;;;;8.77;4.50;;;23.20;41.60;;;;;;5080155;28;20050;-76
2023/04/29 11:49:37;;;;;;;5.57;3.95;;;22.50;43.50;;;;;;5073608;28;20027;-76
2023/04/29 11:52:03;;;;;;;4.78;3.50;;;21.50;46.70;;;;;;5078050;28;20036;-75
2023/04/29 11:54:29;;;;;;;5.90;3.75;;;21.70;47.90;;;;;;5076903;28;20077;-76
2023/04/29 11:56:57;;;;;;;6.50;3.60;;;22.00;47.30;;;;;;5077097;28;20094;-76
2023/04/29 11:59:23;;;;;;;5.90;3.20;;;22.10;47.30;;;;;;5077408;28;20522;-76
2023/04/29 12:01:49;;;;;;;5.80;3.72;;;22.50;47.80;;;;;;5074463;28;20028;-75
2023/04/29 12:04:15;;;;;;;4.35;2.95;;;22.90;43.60;;;;;;5083374;28;20446;-76
2023/04/29 12:06:41;;;;;;;6.53;4.50;;;23.40;48.30;;;;;;5048866;28;20037;-75
2023/04/29 12:09:07;;;;;;;7.72;4.38;;;23.80;47.60;;;;;;5080170;28;20092;-76
2023/04/29 12:11:34;;;;;;;6.07;4.15;;;24.10;42.80;;;;;;5053257;28;20040;-75
2023/04/29 12:14:02;;;;;;;5.35;3.80;;;23.60;43.50;;;;;;5075413;28;20028;-76
2023/04/29 12:16:29;;;;;;;4.43;3.05;;;23.10;43.20;;;;;;5073596;28;20409;-76
2023/04/29 12:18:55;;;;;;;4.75;3.42;;;22.50;46.80;;;;;;5077646;28;20059;-75
2023/04/29 12:21:21;;;;;;;5.93;3.40;;;22.60;46.30;;;;;;5059261;28;20109;-75
2023/04/29 12:23:47;;;;;;;8.13;3.50;;;22.10;49.80;;;;;;5065297;28;20103;-75
2023/04/29 12:26:13;;;;;;;6.65;4.03;;;22.40;47.70;;;;;;5072835;28;20097;-76
2023/04/29 12:28:42;;;;;;;6.45;3.67;;;22.70;47.70;;;;;;5076059;28;20036;-75
2023/04/29 12:31:10;;;;;;;7.22;4.15;;;22.50;47.00;;;;;;5076832;28;20559;-75
2023/04/29 12:33:36;;;;;;;7.03;4.78;;;22.50;44.60;;;;;;5077657;28;20028;-76
2023/04/29 12:36:02;;;;;;;7.55;4.78;;;22.70;48.50;;;;;;5074389;28;20597;-76
2023/04/29 12:38:31;;;;;;;6.85;5.22;;;22.10;48.60;;;;;;5060724;28;20122;-75
2023/04/29 12:41:00;;;;;;;7.95;5.22;;;22.40;52.50;;;;;;5058126;28;20085;-75